createdAt,value
2018-07-21T00:02:08.924Z,99.90
2018-07-21T00:04:39.756Z,99.90
2018-07-21T00:07:10.567Z,99.90
2018-07-21T00:09:41.370Z,99.90
2018-07-21T00:12:12.114Z,99.90
2018-07-21T00:14:43.087Z,99.90
2018-07-21T00:17:13.776Z,99.90
2018-07-21T00:19:44.565Z,99.90
2018-07-21T00:22:15.474Z,99.90
2018-07-21T00:24:46.231Z,99.90
2018-07-21T00:27:16.967Z,99.90
2018-07-21T00:29:48.063Z,99.90
2018-07-21T00:32:18.826Z,99.90
2018-07-21T00:34:49.601Z,99.90
2018-07-21T00:37:20.403Z,99.90
2018-07-21T00:39:51.193Z,99.90
2018-07-21T00:42:21.879Z,99.90
2018-07-21T00:44:52.930Z,99.90
2018-07-21T00:47:23.815Z,99.90
2018-07-21T00:49:54.600Z,99.90
2018-07-21T00:52:25.306Z,99.90
2018-07-21T00:54:56.067Z,99.90
2018-07-21T00:57:26.839Z,99.90
2018-07-21T00:59:57.872Z,99.90
2018-07-21T01:02:28.833Z,99.90
2018-07-21T01:04:59.869Z,99.90
2018-07-21T01:07:30.804Z,99.90
2018-07-21T01:10:01.642Z,99.90
2018-07-21T01:12:32.271Z,99.90
2018-07-21T01:15:03.043Z,99.90
2018-07-21T01:17:33.956Z,99.90
2018-07-21T01:20:05.935Z,99.90
2018-07-21T01:22:36.786Z,99.90
2018-07-21T01:25:08.478Z,99.90
2018-07-21T01:27:39.195Z,99.90
2018-07-21T01:30:10.298Z,99.90
2018-07-21T01:32:40.903Z,99.90
2018-07-21T01:35:11.631Z,99.90
2018-07-21T01:37:42.342Z,99.90
2018-07-21T01:40:13.327Z,99.90
2018-07-21T01:42:43.990Z,99.90
2018-07-21T01:45:14.738Z,99.90
2018-07-21T01:47:45.392Z,99.90
2018-07-21T01:50:16.358Z,99.90
2018-07-21T01:52:47.664Z,99.90
2018-07-21T01:55:18.360Z,99.90
2018-07-21T01:57:49.261Z,99.90
2018-07-21T02:00:20.574Z,99.90
2018-07-21T02:02:51.342Z,99.90
2018-07-21T02:05:21.985Z,99.90
2018-07-21T02:07:53.063Z,99.90
2018-07-21T02:10:23.791Z,99.90
2018-07-21T02:12:55.108Z,99.90
2018-07-21T02:15:26.211Z,99.90
2018-07-21T02:17:56.982Z,99.90
2018-07-21T02:20:27.844Z,99.90
2018-07-21T02:22:58.540Z,99.90
2018-07-21T02:25:29.391Z,99.90
2018-07-21T02:28:00.178Z,99.90
2018-07-21T02:30:31.236Z,99.90
2018-07-21T02:33:02.140Z,99.90
2018-07-21T02:35:33.011Z,99.90
2018-07-21T02:38:03.803Z,99.90
2018-07-21T02:43:04.632Z,99.90
2018-07-21T02:45:35.658Z,99.90
2018-07-21T02:48:06.640Z,99.90
2018-07-21T02:50:37.513Z,99.90
2018-07-21T02:53:08.394Z,99.90
2018-07-21T02:55:39.094Z,99.90
2018-07-21T02:58:09.928Z,99.90
2018-07-21T03:00:40.637Z,99.90
2018-07-21T03:03:11.660Z,99.90
2018-07-21T03:05:42.287Z,99.90
2018-07-21T03:08:13.070Z,99.90
2018-07-21T03:10:43.852Z,99.90
2018-07-21T03:13:14.535Z,99.90
2018-07-21T03:15:46.299Z,99.90
2018-07-21T03:18:17.011Z,99.90
2018-07-21T03:20:47.858Z,99.90
2018-07-21T03:23:18.729Z,99.90
2018-07-21T03:25:49.576Z,99.90
2018-07-21T03:28:20.582Z,99.90
2018-07-21T03:30:51.704Z,99.90
2018-07-21T03:33:22.566Z,99.90
2018-07-21T03:35:53.312Z,99.90
2018-07-21T03:38:24.152Z,99.90
2018-07-21T03:40:54.804Z,99.90
2018-07-21T03:43:25.785Z,99.90
2018-07-21T03:45:56.457Z,99.90
2018-07-21T03:48:27.522Z,99.90
2018-07-21T03:50:58.933Z,99.90
2018-07-21T03:53:29.918Z,99.90
2018-07-21T03:56:00.607Z,99.90
2018-07-21T03:58:31.348Z,99.90
2018-07-21T04:01:02.082Z,99.90
2018-07-21T04:03:33.344Z,99.90
2018-07-21T04:06:04.347Z,99.90
2018-07-21T04:08:35.352Z,99.90
2018-07-21T04:11:06.101Z,99.90
2018-07-21T04:13:36.961Z,99.90
2018-07-21T04:16:07.924Z,99.90
2018-07-21T04:18:38.785Z,99.90
2018-07-21T04:21:09.709Z,99.90
2018-07-21T04:23:40.670Z,99.90
2018-07-21T04:26:11.421Z,99.90
2018-07-21T04:28:42.172Z,99.90
2018-07-21T04:31:13.264Z,99.90
2018-07-21T04:33:44.184Z,99.90
2018-07-21T04:36:15.042Z,99.90
2018-07-21T04:38:45.770Z,99.90
2018-07-21T04:41:16.550Z,99.90
2018-07-21T04:43:47.353Z,99.90
2018-07-21T04:46:18.253Z,99.90
2018-07-21T04:48:49.074Z,99.90
2018-07-21T04:51:19.741Z,99.90
2018-07-21T04:53:50.492Z,99.90
2018-07-21T04:56:21.238Z,99.90
2018-07-21T04:58:52.221Z,99.90
2018-07-21T05:01:22.994Z,99.90
2018-07-21T05:03:53.836Z,99.90
2018-07-21T05:06:24.545Z,99.90
2018-07-21T05:08:55.233Z,99.90
2018-07-21T05:11:25.980Z,99.90
2018-07-21T05:13:56.808Z,99.90
2018-07-21T05:16:27.432Z,99.90
2018-07-21T05:18:58.178Z,99.90
2018-07-21T05:21:28.751Z,99.90
2018-07-21T05:23:59.692Z,99.90
2018-07-21T05:26:30.635Z,99.90
2018-07-21T05:29:01.394Z,99.90
2018-07-21T05:31:32.106Z,99.90
2018-07-21T05:34:02.894Z,99.90
2018-07-21T05:36:33.651Z,99.90
2018-07-21T05:39:05.343Z,99.90
2018-07-21T05:41:36.222Z,99.90
2018-07-21T05:44:07.045Z,99.90
2018-07-21T05:46:37.976Z,99.90
2018-07-21T05:49:09.055Z,99.90
2018-07-21T05:51:39.737Z,99.90
2018-07-21T05:54:10.523Z,99.90
2018-07-21T05:56:41.155Z,99.90
2018-07-21T05:59:12.043Z,99.90
2018-07-21T06:01:42.855Z,99.90
2018-07-21T06:04:13.992Z,99.90
2018-07-21T06:06:44.911Z,99.90
2018-07-21T06:09:15.934Z,99.90
2018-07-21T06:11:46.996Z,99.90
2018-07-21T06:14:18.222Z,99.90
2018-07-21T06:16:49.292Z,99.90
2018-07-21T06:19:20.263Z,99.90
2018-07-21T06:21:51.133Z,99.90
2018-07-21T06:24:21.882Z,99.90
2018-07-21T06:26:52.737Z,99.90
2018-07-21T06:29:23.763Z,99.90
2018-07-21T06:31:54.651Z,99.90
2018-07-21T06:34:25.771Z,99.90
2018-07-21T06:36:56.605Z,99.90
2018-07-21T06:39:27.391Z,99.90
2018-07-21T06:41:58.249Z,99.90
2018-07-21T06:44:29.392Z,99.90
2018-07-21T06:47:00.472Z,99.90
2018-07-21T06:49:31.156Z,99.90
2018-07-21T06:52:01.853Z,99.90
2018-07-21T06:54:32.691Z,99.90
2018-07-21T06:57:03.429Z,99.90
2018-07-21T06:59:34.197Z,99.90
2018-07-21T07:02:04.906Z,99.90
2018-07-21T07:04:35.694Z,99.90
2018-07-21T07:07:06.623Z,99.90
2018-07-21T07:09:37.355Z,99.90
2018-07-21T07:12:08.247Z,99.90
2018-07-21T07:17:09.203Z,99.90
2018-07-21T07:19:40.028Z,99.90
2018-07-21T07:22:11.014Z,99.90
2018-07-21T07:24:41.869Z,99.90
2018-07-21T07:27:12.679Z,99.90
2018-07-21T07:29:43.457Z,99.90
2018-07-21T07:32:14.469Z,99.90
2018-07-21T07:34:45.249Z,99.90
2018-07-21T07:37:16.136Z,99.90
2018-07-21T07:39:47.105Z,99.90
2018-07-21T07:42:18.087Z,99.90
2018-07-21T07:44:49.110Z,99.90
2018-07-21T07:47:19.797Z,99.90
2018-07-21T07:49:50.928Z,99.90
2018-07-21T07:52:21.659Z,99.90
2018-07-21T07:54:52.521Z,99.90
2018-07-21T07:57:23.256Z,99.90
2018-07-21T07:59:54.070Z,99.90
2018-07-21T08:02:25.039Z,99.90
2018-07-21T08:04:55.888Z,99.90
2018-07-21T08:07:26.859Z,99.90
2018-07-21T08:09:57.885Z,99.90
2018-07-21T08:14:58.755Z,99.90
2018-07-21T08:17:29.505Z,99.90
2018-07-21T08:20:00.387Z,99.90
2018-07-21T08:22:31.162Z,99.90
2018-07-21T08:25:02.229Z,99.90
2018-07-21T08:27:33.318Z,99.90
2018-07-21T08:30:04.212Z,99.90
2018-07-21T08:32:35.204Z,99.90
2018-07-21T08:35:06.027Z,99.90
2018-07-21T08:37:37.913Z,99.90
2018-07-21T08:40:09.801Z,99.90
2018-07-21T08:42:40.486Z,99.90
2018-07-21T08:45:11.348Z,99.90
2018-07-21T08:47:42.118Z,99.90
2018-07-21T08:50:12.842Z,99.90
2018-07-21T08:52:43.674Z,99.90
2018-07-21T08:55:14.680Z,99.90
2018-07-21T08:57:45.468Z,99.90
2018-07-21T09:00:16.256Z,99.90
2018-07-21T09:02:46.901Z,99.90
2018-07-21T09:05:17.944Z,99.90
2018-07-21T09:07:48.653Z,99.90
2018-07-21T09:10:19.810Z,99.90
2018-07-21T09:12:53.047Z,99.90
2018-07-21T09:15:24.078Z,99.90
2018-07-21T09:17:54.799Z,99.90
2018-07-21T09:20:27.104Z,99.90
2018-07-21T09:22:58.057Z,99.90
2018-07-21T09:25:28.787Z,99.90
2018-07-21T09:27:59.974Z,99.90
2018-07-21T09:30:30.828Z,99.90
2018-07-21T09:33:01.711Z,99.90
2018-07-21T09:35:32.446Z,99.90
2018-07-21T09:38:03.524Z,99.90
2018-07-21T09:40:34.218Z,99.90
2018-07-21T09:43:04.877Z,99.90
2018-07-21T09:45:35.644Z,99.90
2018-07-21T09:48:06.908Z,99.90
2018-07-21T09:50:37.671Z,99.90
2018-07-21T09:53:08.908Z,99.90
2018-07-21T09:55:39.977Z,99.90
2018-07-21T09:58:10.861Z,99.90
2018-07-21T10:00:46.599Z,99.90
2018-07-21T10:03:17.382Z,99.90
2018-07-21T10:05:48.179Z,99.90
2018-07-21T10:08:19.077Z,99.90
2018-07-21T10:10:49.790Z,99.90
2018-07-21T10:13:26.693Z,99.90
2018-07-21T10:18:32.228Z,99.90
2018-07-21T10:21:16.508Z,99.90
2018-07-21T10:24:08.474Z,99.90
2018-07-21T10:26:45.255Z,99.90
2018-07-21T10:29:23.869Z,99.90
2018-07-21T10:31:55.553Z,99.90
2018-07-21T10:34:36.077Z,99.90
2018-07-21T10:37:08.275Z,99.90
2018-07-21T10:39:40.458Z,99.90
2018-07-21T10:42:14.030Z,99.90
2018-07-21T10:44:48.315Z,99.90
2018-07-21T10:47:25.662Z,99.90
2018-07-21T10:50:15.434Z,99.90
2018-07-21T10:52:50.790Z,99.90
2018-07-21T10:55:26.987Z,99.90
2018-07-21T10:58:00.873Z,99.90
2018-07-21T11:00:31.966Z,99.90
2018-07-21T11:03:12.225Z,99.90
2018-07-21T11:05:49.889Z,99.90
2018-07-21T11:08:31.980Z,99.90
2018-07-21T11:11:03.019Z,99.90
2018-07-21T11:13:33.804Z,99.90
2018-07-21T11:16:05.929Z,99.90
2018-07-21T11:18:39.621Z,99.90
2018-07-21T11:21:11.362Z,99.90
2018-07-21T11:23:48.799Z,99.90
2018-07-21T11:26:27.544Z,99.90
2018-07-21T11:29:01.409Z,99.90
2018-07-21T11:31:47.544Z,99.90
2018-07-21T11:34:26.889Z,99.90
2018-07-21T11:36:59.502Z,99.90
2018-07-21T11:39:36.838Z,99.90
2018-07-21T11:42:12.282Z,99.90
2018-07-21T11:44:47.515Z,99.90
2018-07-21T11:47:18.856Z,99.90
2018-07-21T11:49:52.551Z,99.90
2018-07-21T11:52:25.613Z,99.90
2018-07-21T11:55:06.384Z,99.90
2018-07-21T11:57:41.699Z,99.90
2018-07-21T12:00:26.370Z,99.90
2018-07-21T12:03:05.405Z,99.90
2018-07-21T12:05:37.522Z,99.50
2018-07-21T12:08:15.860Z,98.00
2018-07-21T12:10:51.930Z,98.50
2018-07-21T12:13:22.985Z,99.00
2018-07-21T12:15:56.468Z,99.60
2018-07-21T12:18:27.193Z,99.90
2018-07-21T12:20:58.117Z,99.30
2018-07-21T12:23:29.039Z,99.80
2018-07-21T12:25:59.825Z,99.00
2018-07-21T12:28:31.316Z,99.50
2018-07-21T12:31:02.009Z,99.80
2018-07-21T12:33:32.960Z,99.50
2018-07-21T12:36:03.952Z,99.90
2018-07-21T12:38:34.704Z,99.90
2018-07-21T12:41:05.496Z,99.90
2018-07-21T12:43:36.490Z,99.60
2018-07-21T12:46:07.516Z,99.90
2018-07-21T12:48:38.338Z,99.90
2018-07-21T12:51:09.167Z,99.90
2018-07-21T12:53:39.900Z,99.40
2018-07-21T12:56:10.686Z,98.70
2018-07-21T12:58:41.626Z,99.40
2018-07-21T13:01:12.336Z,99.90
2018-07-21T13:03:43.538Z,99.60
2018-07-21T13:06:14.372Z,99.90
2018-07-21T13:11:15.552Z,99.30
2018-07-21T13:13:46.464Z,99.70
2018-07-21T13:16:17.784Z,98.90
2018-07-21T13:18:49.645Z,98.80
2018-07-21T13:21:24.313Z,98.60
2018-07-21T13:23:55.640Z,98.80
2018-07-21T13:26:26.365Z,99.40
2018-07-21T13:29:00.880Z,99.10
2018-07-21T13:31:32.773Z,99.00
2018-07-21T13:34:04.125Z,99.00
2018-07-21T13:36:35.012Z,98.30
2018-07-21T13:39:09.117Z,98.10
2018-07-21T13:41:39.999Z,98.50
2018-07-21T13:44:11.168Z,99.20
2018-07-21T13:46:41.982Z,98.60
2018-07-21T13:51:46.418Z,98.60
2018-07-21T13:54:17.545Z,98.70
2018-07-21T13:56:48.767Z,97.70
2018-07-21T13:59:19.554Z,98.00
2018-07-21T14:01:50.314Z,98.60
2018-07-21T14:04:21.006Z,97.60
2018-07-21T14:06:52.419Z,97.90
2018-07-21T14:09:23.553Z,98.80
2018-07-21T14:11:54.312Z,98.50
2018-07-21T14:14:25.775Z,99.10
2018-07-21T14:16:56.910Z,98.80
2018-07-21T14:19:27.727Z,98.80
2018-07-21T14:21:58.535Z,99.20
2018-07-21T14:24:29.527Z,98.10
2018-07-21T14:27:00.402Z,98.20
2018-07-21T14:29:31.278Z,99.30
2018-07-21T14:32:02.058Z,98.80
2018-07-21T14:34:33.042Z,98.80
2018-07-21T14:37:03.863Z,98.70
2018-07-21T14:39:34.658Z,99.20
2018-07-21T14:42:06.116Z,98.40
2018-07-21T14:44:36.992Z,98.80
2018-07-21T14:47:07.799Z,99.30
2018-07-21T14:52:08.419Z,98.50
2018-07-21T14:54:39.315Z,97.80
2018-07-21T14:57:10.349Z,97.70
2018-07-21T14:59:41.019Z,98.20
2018-07-21T15:02:12.046Z,97.60
2018-07-21T15:04:42.710Z,97.10
2018-07-21T15:07:13.516Z,97.80
2018-07-21T15:09:44.767Z,98.90
2018-07-21T15:12:15.570Z,98.90
2018-07-21T15:14:46.439Z,98.30
2018-07-21T15:17:17.157Z,97.50
2018-07-21T15:19:48.015Z,98.20
2018-07-21T15:22:18.982Z,98.50
2018-07-21T15:24:50.142Z,98.10
2018-07-21T15:27:20.908Z,98.10
2018-07-21T15:29:51.921Z,97.60
2018-07-21T15:32:22.646Z,97.50
2018-07-21T15:34:53.511Z,97.10
2018-07-21T15:37:24.378Z,98.30
2018-07-21T15:39:55.091Z,99.30
2018-07-21T15:42:25.931Z,98.90
2018-07-21T15:44:56.791Z,99.10
2018-07-21T15:47:27.589Z,98.50
2018-07-21T15:49:58.291Z,97.90
2018-07-21T15:52:29.275Z,98.20
2018-07-21T15:54:59.944Z,99.10
2018-07-21T15:57:30.683Z,99.10
2018-07-21T16:00:01.406Z,99.10
2018-07-21T16:02:32.087Z,99.60
2018-07-21T16:05:02.800Z,98.90
2018-07-21T16:07:33.539Z,99.30
2018-07-21T16:10:04.444Z,98.80
2018-07-21T16:12:35.108Z,99.00
2018-07-21T16:15:06.483Z,99.60
2018-07-21T16:17:37.127Z,99.10
2018-07-21T16:20:08.130Z,97.60
2018-07-21T16:22:38.931Z,97.80
2018-07-21T16:25:09.641Z,98.10
2018-07-21T16:27:40.639Z,98.70
2018-07-21T16:30:11.822Z,98.90
2018-07-21T16:32:42.508Z,99.20
2018-07-21T16:35:13.199Z,99.80
2018-07-21T16:37:44.035Z,99.80
2018-07-21T16:40:14.950Z,99.90
2018-07-21T16:42:45.737Z,99.90
2018-07-21T16:45:16.415Z,99.90
2018-07-21T16:47:47.446Z,99.90
2018-07-21T16:50:18.203Z,99.90
2018-07-21T16:52:49.767Z,99.90
2018-07-21T16:55:20.441Z,99.90
2018-07-21T16:57:51.265Z,99.90
2018-07-21T17:00:22.261Z,99.90
2018-07-21T17:02:53.058Z,99.90
2018-07-21T17:05:23.774Z,99.90
2018-07-21T17:07:54.786Z,99.90
2018-07-21T17:10:25.515Z,99.90
2018-07-21T17:12:56.362Z,99.90
2018-07-21T17:15:27.073Z,99.90
2018-07-21T17:17:57.813Z,99.90
2018-07-21T17:20:29.202Z,99.90
2018-07-21T17:22:59.898Z,99.90
2018-07-21T17:25:30.901Z,99.90
2018-07-21T17:28:01.635Z,99.90
2018-07-21T17:30:32.872Z,99.90
2018-07-21T17:33:03.519Z,99.90
2018-07-21T17:35:34.333Z,99.90
2018-07-21T17:38:05.140Z,99.90
2018-07-21T17:40:36.356Z,99.90
2018-07-21T17:43:07.266Z,99.90
2018-07-21T17:45:38.344Z,99.90
2018-07-21T17:48:17.786Z,99.90
2018-07-21T17:50:48.696Z,99.90
2018-07-21T17:53:19.468Z,99.90
2018-07-21T17:55:50.211Z,99.90
2018-07-21T17:58:20.909Z,99.90
2018-07-21T18:00:51.711Z,99.90
2018-07-21T18:03:22.521Z,99.90
2018-07-21T18:05:55.043Z,99.90
2018-07-21T18:08:30.886Z,99.90
2018-07-21T18:11:01.891Z,99.90
2018-07-21T18:13:32.729Z,99.90
2018-07-21T18:16:03.521Z,99.90
2018-07-21T18:18:34.366Z,99.90
2018-07-21T18:21:05.242Z,99.90
2018-07-21T18:23:35.925Z,99.90
2018-07-21T18:26:06.595Z,99.90
2018-07-21T18:28:37.629Z,99.90
2018-07-21T18:31:08.371Z,99.90
2018-07-21T18:33:39.761Z,99.90
2018-07-21T18:36:10.518Z,99.90
2018-07-21T18:38:41.286Z,99.90
2018-07-21T18:41:12.482Z,99.90
2018-07-21T18:43:43.263Z,99.90
2018-07-21T18:46:14.104Z,99.90
2018-07-21T18:48:44.784Z,99.90
2018-07-21T18:51:15.547Z,99.90
2018-07-21T18:53:46.370Z,99.90
2018-07-21T18:56:17.305Z,99.90
2018-07-21T18:58:48.043Z,99.90
2018-07-21T19:01:18.795Z,99.90
2018-07-21T19:03:49.622Z,99.90
2018-07-21T19:06:20.388Z,99.90
2018-07-21T19:08:56.210Z,99.90
2018-07-21T19:11:26.942Z,99.90
2018-07-21T19:13:57.785Z,99.90
2018-07-21T19:16:33.316Z,99.90
2018-07-21T19:19:03.942Z,99.90
2018-07-21T19:21:34.808Z,99.90
2018-07-21T19:24:05.707Z,99.90
2018-07-21T19:26:41.413Z,99.90
2018-07-21T19:29:12.623Z,99.90
2018-07-21T19:31:48.223Z,99.90
2018-07-21T19:34:19.723Z,99.90
2018-07-21T19:36:50.583Z,99.90
2018-07-21T19:39:21.834Z,99.90
2018-07-21T19:41:57.387Z,99.90
2018-07-21T19:44:28.138Z,99.90
2018-07-21T19:46:58.816Z,99.90
2018-07-21T19:49:29.561Z,99.90
2018-07-21T19:52:00.321Z,99.90
2018-07-21T19:54:35.362Z,99.90
2018-07-21T19:57:06.854Z,99.90
2018-07-21T19:59:37.678Z,99.90
2018-07-21T20:02:08.998Z,99.90
2018-07-21T20:04:39.778Z,99.90
2018-07-21T20:07:10.547Z,99.90
2018-07-21T20:09:41.240Z,99.90
2018-07-21T20:12:12.894Z,99.90
2018-07-21T20:14:44.485Z,99.90
2018-07-21T20:17:15.190Z,99.90
2018-07-21T20:19:46.109Z,99.90
2018-07-21T20:22:16.856Z,99.90
2018-07-21T20:24:47.564Z,99.90
2018-07-21T20:27:18.359Z,99.90
2018-07-21T20:29:49.151Z,99.90
2018-07-21T20:32:19.921Z,99.90
2018-07-21T20:34:50.627Z,99.90
2018-07-21T20:37:23.392Z,99.90
2018-07-21T20:39:54.156Z,99.90
2018-07-21T20:42:25.909Z,99.90
2018-07-21T20:44:56.831Z,99.90
2018-07-21T20:47:27.683Z,99.90
2018-07-21T20:49:58.308Z,99.90
2018-07-21T20:52:28.957Z,99.90
2018-07-21T20:54:59.628Z,99.90
2018-07-21T20:57:30.305Z,99.90
2018-07-21T21:00:01.100Z,99.90
2018-07-21T21:02:32.023Z,99.90
2018-07-21T21:05:02.951Z,99.90
2018-07-21T21:07:33.718Z,99.90
2018-07-21T21:10:04.583Z,99.90
2018-07-21T21:12:35.307Z,99.90
2018-07-21T21:15:06.616Z,99.90
2018-07-21T21:17:37.377Z,99.90
2018-07-21T21:20:08.081Z,99.90
2018-07-21T21:22:38.828Z,99.90
2018-07-21T21:25:09.431Z,99.90
2018-07-21T21:27:40.090Z,99.90
2018-07-21T21:30:10.692Z,99.90
2018-07-21T21:32:41.437Z,99.90
2018-07-21T21:35:12.140Z,99.90
2018-07-21T21:37:42.845Z,99.90
2018-07-21T21:40:13.592Z,99.90
2018-07-21T21:42:44.378Z,99.90
2018-07-21T21:45:15.393Z,99.90
2018-07-21T21:47:46.219Z,99.90
2018-07-21T21:50:17.202Z,99.90
2018-07-21T21:52:48.501Z,99.90
2018-07-21T21:55:19.227Z,99.90
2018-07-21T21:57:50.712Z,99.90
2018-07-21T22:00:21.722Z,99.90
2018-07-21T22:02:52.524Z,99.90
2018-07-21T22:05:23.198Z,99.90
2018-07-21T22:10:23.900Z,99.90
2018-07-21T22:12:54.573Z,99.90
2018-07-21T22:15:25.270Z,99.90
2018-07-21T22:17:56.107Z,99.90
2018-07-21T22:20:27.038Z,99.90
2018-07-21T22:22:57.694Z,99.90
2018-07-21T22:25:31.754Z,99.90
2018-07-21T22:28:02.920Z,99.90
2018-07-21T22:30:33.821Z,99.90
2018-07-21T22:33:05.132Z,99.90
2018-07-21T22:35:35.788Z,99.90
2018-07-21T22:38:06.767Z,99.90
2018-07-21T22:40:37.587Z,99.90
2018-07-21T22:43:08.369Z,99.90
2018-07-21T22:45:39.529Z,99.90
2018-07-21T22:48:10.322Z,99.90
2018-07-21T22:50:41.074Z,99.90
2018-07-21T22:53:11.717Z,99.90
2018-07-21T22:55:42.751Z,99.90
2018-07-21T22:58:13.450Z,99.90
2018-07-21T23:00:44.318Z,99.90
2018-07-21T23:03:15.039Z,99.90
2018-07-21T23:05:45.912Z,99.90
2018-07-21T23:08:16.705Z,99.90
2018-07-21T23:10:47.491Z,99.90
2018-07-21T23:13:18.375Z,99.90
2018-07-21T23:15:49.242Z,99.90
2018-07-21T23:18:19.982Z,99.90
2018-07-21T23:20:50.697Z,99.90
2018-07-21T23:23:21.307Z,99.90
2018-07-21T23:25:52.035Z,99.90
2018-07-21T23:28:22.874Z,99.90
2018-07-21T23:30:53.746Z,99.90
2018-07-21T23:33:24.867Z,99.90
2018-07-21T23:35:55.473Z,99.90
2018-07-21T23:38:26.246Z,99.90
2018-07-21T23:40:56.879Z,99.90
2018-07-21T23:43:27.557Z,99.90
2018-07-21T23:45:58.371Z,99.90
2018-07-21T23:48:29.125Z,99.90
2018-07-21T23:50:59.895Z,99.90
2018-07-21T23:53:30.936Z,99.90
2018-07-21T23:56:01.674Z,99.90
2018-07-21T23:58:32.347Z,99.90
